Time;durP1;ratioP1;P1;durP2;ratioP2;P2;SDS_P1;SDS_P2;PMS_P1;PMS_P2;Temp;Humidity;BMP_temperature;BMP_pressure;BME280_temperature;BME280_humidity;BME280_pressure;Samples;Min_cycle;Max_cycle;Signal;HPM_P1;HPM_P2
2022/03/13 00:00:36;;;;;;;8.98;4.53;;;3.20;51.50;;;;;;5043076;28;20077;-83
2022/03/13 00:03:09;;;;;;;8.95;4.85;;;3.20;51.60;;;;;;5045071;28;20458;-83
2022/03/13 00:05:41;;;;;;;7.45;4.25;;;3.10;51.90;;;;;;5024017;28;20029;-83
2022/03/13 00:08:27;;;;;;;10.27;4.38;;;3.10;52.10;;;;;;5044629;28;20085;-85
2022/03/13 00:11:00;;;;;;;6.80;4.00;;;3.00;52.20;;;;;;5026322;28;20370;-84
2022/03/13 00:13:31;;;;;;;7.93;4.30;;;3.00;52.50;;;;;;5047902;28;20022;-83
2022/03/13 00:15:59;;;;;;;8.40;4.80;;;3.00;52.60;;;;;;5045352;28;20052;-85
2022/03/13 00:18:25;;;;;;;9.38;5.25;;;2.90;52.50;;;;;;5046933;28;20021;-84
2022/03/13 00:20:51;;;;;;;8.52;4.90;;;2.90;52.60;;;;;;5025121;28;20120;-84
2022/03/13 00:23:19;;;;;;;8.25;4.15;;;2.80;52.50;;;;;;5045167;28;20056;-83
2022/03/13 00:25:45;;;;;;;8.20;4.45;;;2.90;52.60;;;;;;5031891;28;20033;-83
2022/03/13 00:28:12;;;;;;;9.35;4.63;;;2.90;52.60;;;;;;5043875;28;20021;-83
2022/03/13 00:30:39;;;;;;;6.70;4.00;;;2.90;52.50;;;;;;5030680;28;20037;-84
2022/03/13 00:33:06;;;;;;;5.97;4.20;;;2.80;52.40;;;;;;5051257;28;20021;-84
2022/03/13 00:35:32;;;;;;;9.18;4.78;;;2.80;52.30;;;;;;5052638;28;20041;-83
2022/03/13 00:37:58;;;;;;;9.20;4.85;;;2.80;52.40;;;;;;5054738;28;20281;-83
2022/03/13 00:40:25;;;;;;;9.35;5.85;;;2.80;52.40;;;;;;5038330;28;20024;-82
2022/03/13 00:42:51;;;;;;;7.35;5.25;;;2.70;52.30;;;;;;5051974;28;20092;-84
2022/03/13 00:45:17;;;;;;;8.88;4.97;;;2.70;52.30;;;;;;5045426;28;20038;-84
2022/03/13 00:47:43;;;;;;;11.75;5.70;;;2.80;52.40;;;;;;5045457;28;20030;-82
2022/03/13 00:50:09;;;;;;;7.97;5.18;;;2.80;52.40;;;;;;5044587;28;20044;-81
2022/03/13 00:52:35;;;;;;;7.97;4.90;;;2.70;52.50;;;;;;5043601;28;20048;-83
2022/03/13 00:55:00;;;;;;;8.90;4.95;;;2.70;52.70;;;;;;5040247;28;20017;-83
2022/03/13 00:57:29;;;;;;;9.55;5.20;;;2.60;52.80;;;;;;5022279;28;20435;-84
2022/03/13 00:59:54;;;;;;;8.30;4.78;;;2.60;52.90;;;;;;5022552;28;20073;-84
2022/03/13 01:02:20;;;;;;;10.00;4.80;;;2.60;53.30;;;;;;5041752;28;20025;-84
2022/03/13 01:04:46;;;;;;;7.47;4.68;;;2.60;53.30;;;;;;5042961;28;20435;-81
2022/03/13 01:07:14;;;;;;;8.55;5.03;;;2.60;53.30;;;;;;5056301;28;20018;-83
2022/03/13 01:09:40;;;;;;;9.77;4.95;;;2.60;53.40;;;;;;5048250;28;20041;-83
2022/03/13 01:12:06;;;;;;;7.75;4.68;;;2.50;53.60;;;;;;5046040;28;20053;-81
2022/03/13 01:14:32;;;;;;;7.30;4.15;;;2.50;53.80;;;;;;5055102;28;20021;-82
2022/03/13 01:17:05;;;;;;;8.75;4.80;;;2.50;54.10;;;;;;5029649;28;20052;-84
2022/03/13 01:19:31;;;;;;;;;;;2.40;54.40;;;;;;5041741;28;20033;-84
2022/03/13 01:21:57;;;;;;;10.00;4.95;;;2.40;54.60;;;;;;5042727;28;20227;-84
2022/03/13 01:24:32;;;;;;;6.35;3.90;;;2.40;54.70;;;;;;5044379;28;20017;-84
2022/03/13 01:27:01;;;;;;;11.10;4.88;;;2.40;54.80;;;;;;5044767;28;20085;-84
2022/03/13 01:29:32;;;;;;;7.28;4.45;;;2.40;54.80;;;;;;5042033;28;20032;-81
2022/03/13 01:31:58;;;;;;;8.48;4.80;;;2.30;54.90;;;;;;5039766;28;20029;-82
2022/03/13 01:34:36;;;;;;;9.73;5.40;;;2.30;55.10;;;;;;5043216;28;20057;-83
2022/03/13 01:37:04;;;;;;;7.93;4.80;;;2.30;55.10;;;;;;5036996;28;20022;-83
2022/03/13 01:39:30;;;;;;;9.13;5.32;;;2.30;55.20;;;;;;5005211;28;20021;-85
2022/03/13 01:41:56;;;;;;;7.10;5.18;;;2.20;55.40;;;;;;5041971;28;20030;-84
2022/03/13 01:44:22;;;;;;;8.50;4.95;;;2.20;55.70;;;;;;5025541;28;20170;-84
2022/03/13 01:46:48;;;;;;;9.70;5.15;;;2.20;56.00;;;;;;5046047;28;20022;-81
2022/03/13 01:49:16;;;;;;;9.70;4.82;;;2.10;56.30;;;;;;5055583;28;20017;-81
2022/03/13 01:51:42;;;;;;;8.02;4.63;;;2.00;56.50;;;;;;5039676;28;20034;-83
2022/03/13 01:54:13;;;;;;;7.35;4.80;;;2.00;56.70;;;;;;5036726;28;20037;-84
2022/03/13 01:56:40;;;;;;;8.30;4.38;;;1.90;57.00;;;;;;5038876;28;20048;-83
2022/03/13 01:59:08;;;;;;;6.35;3.80;;;1.90;57.20;;;;;;5039955;28;20022;-84
2022/03/13 02:01:35;;;;;;;7.85;4.55;;;1.90;57.30;;;;;;5040391;28;20034;-84
2022/03/13 02:04:01;;;;;;;9.57;5.25;;;1.80;57.20;;;;;;5025152;28;20040;-82
2022/03/13 02:06:27;;;;;;;10.82;5.25;;;1.80;57.30;;;;;;5052357;28;20018;-81
2022/03/13 02:08:55;;;;;;;8.30;4.88;;;1.80;57.60;;;;;;5042819;28;20032;-84
2022/03/13 02:11:40;;;;;;;9.52;4.93;;;1.70;57.80;;;;;;5023410;28;20029;-85
2022/03/13 02:14:08;;;;;;;8.25;5.40;;;1.70;58.00;;;;;;5013403;28;20010;-82
2022/03/13 02:16:35;;;;;;;10.60;4.78;;;1.60;58.10;;;;;;5035173;28;20022;-82
2022/03/13 02:19:01;;;;;;;9.10;4.47;;;1.50;58.20;;;;;;5011393;28;20133;-84
2022/03/13 02:21:30;;;;;;;8.73;4.40;;;1.50;58.40;;;;;;5028924;28;20033;-82
2022/03/13 02:23:59;;;;;;;8.38;5.45;;;1.50;58.50;;;;;;5012415;28;20068;-81
2022/03/13 02:26:27;;;;;;;8.88;5.10;;;1.40;58.50;;;;;;5018215;28;20113;-81
2022/03/13 02:28:55;;;;;;;9.45;4.90;;;1.40;58.50;;;;;;5004456;28;20331;-82
2022/03/13 02:31:34;;;;;;;7.47;4.53;;;1.40;58.50;;;;;;5006545;28;20061;-83
2022/03/13 02:34:00;;;;;;;8.30;4.13;;;1.40;58.60;;;;;;5026842;28;20110;-82
2022/03/13 02:36:31;;;;;;;8.68;4.30;;;1.30;58.50;;;;;;5026733;28;20030;-83
2022/03/13 02:39:03;;;;;;;8.88;4.75;;;1.30;58.40;;;;;;5040016;28;20053;-83
2022/03/13 02:41:28;;;;;;;6.07;4.40;;;1.30;58.50;;;;;;5045570;28;20021;-83
2022/03/13 02:43:55;;;;;;;8.98;4.95;;;1.30;58.60;;;;;;5029485;28;20515;-82
2022/03/13 02:46:23;;;;;;;8.82;4.60;;;1.30;58.70;;;;;;5046797;28;20381;-82
2022/03/13 02:48:50;;;;;;;5.88;3.85;;;1.30;58.70;;;;;;5046717;28;20027;-82
2022/03/13 02:51:19;;;;;;;8.70;4.65;;;1.30;58.80;;;;;;5045843;28;20025;-83
2022/03/13 02:53:45;;;;;;;8.25;3.83;;;1.30;58.80;;;;;;5046643;28;20018;-83
2022/03/13 02:56:11;;;;;;;7.93;3.78;;;1.30;58.80;;;;;;5029472;28;20022;-82
2022/03/13 02:58:37;;;;;;;10.10;4.47;;;1.30;58.80;;;;;;5046345;28;20020;-83
2022/03/13 03:01:03;;;;;;;5.68;3.72;;;1.30;58.60;;;;;;5046167;28;20013;-83
2022/03/13 03:03:29;;;;;;;7.95;3.72;;;1.30;58.50;;;;;;5043511;28;20026;-82
2022/03/13 03:05:55;;;;;;;8.27;4.28;;;1.30;58.40;;;;;;5041749;28;20068;-83
2022/03/13 03:08:22;;;;;;;7.50;3.92;;;1.30;58.40;;;;;;5035480;28;20070;-82
2022/03/13 03:10:48;;;;;;;6.93;3.97;;;1.30;58.50;;;;;;5034371;28;20021;-82
2022/03/13 03:13:15;;;;;;;7.40;3.95;;;1.40;58.60;;;;;;5041304;28;20537;-82
2022/03/13 03:15:41;;;;;;;5.75;3.78;;;1.40;58.60;;;;;;5042110;28;20044;-82
2022/03/13 03:18:12;;;;;;;5.85;3.50;;;1.40;58.70;;;;;;5041912;28;20037;-80
2022/03/13 03:20:41;;;;;;;9.95;4.20;;;1.40;58.50;;;;;;5041462;28;20041;-82
2022/03/13 03:23:07;;;;;;;5.75;3.65;;;1.40;58.40;;;;;;5044937;28;20037;-82
2022/03/13 03:25:33;;;;;;;6.68;3.47;;;1.40;58.60;;;;;;5041623;28;20085;-82
2022/03/13 03:27:59;;;;;;;7.00;3.58;;;1.30;58.60;;;;;;5046261;28;20088;-82
2022/03/13 03:30:27;;;;;;;8.75;4.45;;;1.30;58.50;;;;;;5058015;28;20041;-82
2022/03/13 03:32:54;;;;;;;5.30;3.47;;;1.30;58.30;;;;;;5046157;28;20033;-82
2022/03/13 03:35:23;;;;;;;7.35;4.18;;;1.30;58.20;;;;;;5028292;28;20036;-83
2022/03/13 03:37:50;;;;;;;5.97;3.58;;;1.30;58.10;;;;;;5040379;28;20085;-83
2022/03/13 03:40:20;;;;;;;9.77;3.58;;;1.30;58.00;;;;;;5033232;28;20475;-83
2022/03/13 03:42:45;;;;;;;7.72;4.25;;;1.30;57.70;;;;;;5026030;28;20049;-83
2022/03/13 03:45:13;;;;;;;7.30;3.53;;;1.30;57.40;;;;;;5012986;28;20026;-82
2022/03/13 03:47:39;;;;;;;8.65;4.05;;;1.30;57.10;;;;;;5006774;28;20029;-82
2022/03/13 03:50:05;;;;;;;7.65;3.88;;;1.30;57.20;;;;;;5026232;28;20029;-83
2022/03/13 03:52:31;;;;;;;7.05;3.90;;;1.20;57.40;;;;;;5032307;28;20022;-83
2022/03/13 03:54:57;;;;;;;6.93;4.00;;;1.20;57.60;;;;;;5038176;28;20045;-82
2022/03/13 03:57:22;;;;;;;6.78;3.70;;;1.20;57.70;;;;;;5031027;28;20639;-82
2022/03/13 03:59:48;;;;;;;10.18;4.22;;;1.20;58.00;;;;;;5025297;28;20486;-82
2022/03/13 04:02:14;;;;;;;7.50;4.28;;;1.20;58.20;;;;;;5024975;28;20092;-83
2022/03/13 04:04:39;;;;;;;12.20;5.15;;;1.10;58.90;;;;;;5025707;28;20094;-82
2022/03/13 04:07:05;;;;;;;9.85;5.00;;;1.10;60.20;;;;;;5029292;28;20060;-82
2022/03/13 04:09:31;;;;;;;10.40;4.85;;;0.90;61.00;;;;;;5022885;28;20021;-82
2022/03/13 04:11:58;;;;;;;7.03;4.05;;;0.90;61.60;;;;;;5024622;28;20034;-82
2022/03/13 04:14:24;;;;;;;7.43;4.13;;;0.90;61.80;;;;;;5008213;28;20036;-83
2022/03/13 04:16:51;;;;;;;8.88;4.53;;;0.80;62.40;;;;;;5007907;28;20117;-82
2022/03/13 04:19:19;;;;;;;8.48;4.03;;;0.90;62.10;;;;;;5025522;28;20559;-83
2022/03/13 04:21:45;;;;;;;7.75;4.10;;;0.80;61.90;;;;;;5024914;28;20033;-83
2022/03/13 04:24:12;;;;;;;6.15;3.80;;;0.90;61.70;;;;;;5024349;28;20026;-83
2022/03/13 04:26:42;;;;;;;7.53;4.20;;;0.90;61.30;;;;;;5027012;28;20041;-83
2022/03/13 04:29:09;;;;;;;6.25;3.95;;;0.90;61.20;;;;;;5031487;28;20158;-83
2022/03/13 04:31:37;;;;;;;7.07;4.00;;;0.90;61.00;;;;;;5032055;28;20030;-83
2022/03/13 04:34:04;;;;;;;7.88;3.90;;;0.90;61.10;;;;;;5027727;28;20029;-83
2022/03/13 04:36:33;;;;;;;6.35;3.95;;;0.90;61.30;;;;;;5006912;28;20022;-83
2022/03/13 04:39:02;;;;;;;7.47;4.80;;;0.80;61.60;;;;;;5036895;28;20467;-82
2022/03/13 04:41:29;;;;;;;6.43;4.00;;;0.80;62.10;;;;;;5023528;28;20030;-81
2022/03/13 04:43:54;;;;;;;8.73;4.72;;;0.80;62.50;;;;;;5023685;28;20022;-83
2022/03/13 04:46:20;;;;;;;10.15;4.65;;;0.80;62.50;;;;;;5024518;28;20018;-82
2022/03/13 04:48:47;;;;;;;7.68;4.40;;;0.80;62.40;;;;;;5006977;28;20076;-82
2022/03/13 04:51:12;;;;;;;8.13;4.32;;;0.80;62.50;;;;;;5028638;28;20030;-81
2022/03/13 04:53:39;;;;;;;9.38;4.82;;;0.70;62.80;;;;;;5035222;28;20052;-82
2022/03/13 04:56:05;;;;;;;8.50;4.68;;;0.70;63.00;;;;;;5032158;28;20026;-82
2022/03/13 04:58:31;;;;;;;9.82;4.30;;;0.70;63.30;;;;;;5022642;28;20082;-82
2022/03/13 05:00:57;;;;;;;10.45;4.97;;;0.70;63.70;;;;;;5019431;28;20105;-81
2022/03/13 05:03:23;;;;;;;7.45;4.50;;;0.60;64.10;;;;;;5026468;28;20088;-82
2022/03/13 05:05:49;;;;;;;8.63;4.85;;;0.50;64.30;;;;;;5017183;28;20045;-83
2022/03/13 05:08:16;;;;;;;9.95;4.78;;;0.50;64.50;;;;;;5026615;28;20018;-82
2022/03/13 05:10:46;;;;;;;9.23;4.85;;;0.50;64.70;;;;;;5036696;28;20014;-83
2022/03/13 05:13:14;;;;;;;8.45;4.57;;;0.40;64.80;;;;;;5019047;28;20097;-83
2022/03/13 05:15:41;;;;;;;9.82;5.15;;;0.40;65.00;;;;;;5036603;28;20055;-83
2022/03/13 05:18:07;;;;;;;9.88;4.60;;;0.40;65.10;;;;;;5035993;28;20037;-84
2022/03/13 05:20:36;;;;;;;10.65;4.97;;;0.40;65.30;;;;;;5035432;28;20025;-84
2022/03/13 05:23:04;;;;;;;8.27;4.97;;;0.30;65.20;;;;;;5030519;28;20033;-84
2022/03/13 05:25:31;;;;;;;9.93;5.22;;;0.30;64.90;;;;;;4999385;28;20403;-82
2022/03/13 05:27:57;;;;;;;12.48;5.85;;;0.30;64.80;;;;;;4999772;28;20105;-84
2022/03/13 05:30:24;;;;;;;10.15;5.20;;;0.30;64.60;;;;;;5021027;28;20044;-84
2022/03/13 05:32:50;;;;;;;10.98;5.18;;;0.30;64.20;;;;;;5018748;28;20060;-83
2022/03/13 05:35:17;;;;;;;7.22;4.18;;;0.30;63.90;;;;;;5006136;28;20026;-85
2022/03/13 05:37:43;;;;;;;10.52;4.97;;;0.30;63.80;;;;;;5011390;28;20013;-82
2022/03/13 05:40:13;;;;;;;7.38;4.50;;;0.30;63.80;;;;;;5038784;28;20021;-83
2022/03/13 05:42:43;;;;;;;7.65;4.40;;;0.40;63.70;;;;;;5022511;28;20039;-85
2022/03/13 05:45:15;;;;;;;6.70;3.67;;;0.40;63.70;;;;;;5026843;28;20076;-83
2022/03/13 05:47:44;;;;;;;5.75;3.20;;;0.50;63.70;;;;;;5046657;28;20093;-85
2022/03/13 05:50:10;;;;;;;6.03;3.95;;;0.50;63.50;;;;;;5044338;28;20068;-84
2022/03/13 05:52:36;;;;;;;7.28;4.05;;;0.60;63.50;;;;;;5049248;28;20037;-84
2022/03/13 05:55:02;;;;;;;7.18;3.85;;;0.70;63.50;;;;;;5055310;28;20036;-85
2022/03/13 05:57:27;;;;;;;7.28;3.88;;;0.80;63.60;;;;;;5047881;28;20087;-85
2022/03/13 05:59:53;;;;;;;8.00;3.70;;;0.80;63.50;;;;;;5028342;28;20033;-85
2022/03/13 06:02:22;;;;;;;6.90;3.58;;;0.90;63.50;;;;;;5042322;28;20051;-84
2022/03/13 06:04:48;;;;;;;5.53;3.47;;;1.00;63.40;;;;;;5040125;28;20021;-86
2022/03/13 06:07:14;;;;;;;4.75;3.17;;;1.00;63.30;;;;;;5050571;28;20048;-85
2022/03/13 06:09:40;;;;;;;5.65;3.47;;;1.10;63.30;;;;;;5047116;28;20040;-84
2022/03/13 06:12:07;;;;;;;4.47;3.40;;;1.20;63.40;;;;;;5043036;28;20025;-84
2022/03/13 06:14:33;;;;;;;5.68;3.40;;;1.30;63.40;;;;;;5054534;28;20014;-83
2022/03/13 06:16:59;;;;;;;5.57;3.28;;;1.40;63.30;;;;;;5045012;28;20524;-85
2022/03/13 06:19:24;;;;;;;7.22;3.40;;;1.50;63.30;;;;;;5047506;28;20032;-87
2022/03/13 06:21:50;;;;;;;5.47;3.17;;;1.50;63.30;;;;;;5046219;28;20375;-85
2022/03/13 06:24:17;;;;;;;7.32;3.67;;;1.60;63.40;;;;;;5046300;28;20061;-83
2022/03/13 06:26:43;;;;;;;6.45;3.58;;;1.60;63.40;;;;;;5026203;28;20054;-86
2022/03/13 06:29:09;;;;;;;5.93;3.50;;;1.70;63.30;;;;;;5040172;28;20113;-85
2022/03/13 06:31:35;;;;;;;5.75;3.30;;;1.70;63.20;;;;;;5041986;28;20057;-85
2022/03/13 06:34:01;;;;;;;3.88;2.83;;;1.80;63.10;;;;;;5024230;28;20454;-85
2022/03/13 06:36:27;;;;;;;5.10;3.05;;;1.90;63.00;;;;;;5041709;28;20022;-86
2022/03/13 06:38:53;;;;;;;5.50;3.85;;;1.90;62.90;;;;;;5047538;28;20029;-85
2022/03/13 06:41:19;;;;;;;6.25;3.17;;;2.00;62.70;;;;;;5044623;28;20040;-84
2022/03/13 06:43:46;;;;;;;6.97;4.03;;;2.00;62.40;;;;;;5040614;28;20064;-84
2022/03/13 06:46:12;;;;;;;8.30;4.05;;;2.10;62.40;;;;;;5040206;28;20026;-83
2022/03/13 06:48:38;;;;;;;5.32;3.33;;;2.20;62.20;;;;;;5040969;28;20024;-84
2022/03/13 06:51:04;;;;;;;6.25;4.05;;;2.20;62.20;;;;;;5042208;28;20021;-84
2022/03/13 06:53:29;;;;;;;7.28;4.18;;;2.30;62.20;;;;;;5044073;28;20044;-84
2022/03/13 06:55:55;;;;;;;7.25;4.60;;;2.40;62.10;;;;;;5057213;28;20038;-87
2022/03/13 06:58:21;;;;;;;8.35;4.95;;;2.40;61.90;;;;;;5056646;28;20014;-84
2022/03/13 07:00:47;;;;;;;8.18;4.40;;;2.40;61.80;;;;;;5041469;28;20083;-85
2022/03/13 07:03:13;;;;;;;8.85;4.50;;;2.40;61.80;;;;;;5046134;28;20048;-85
2022/03/13 07:05:40;;;;;;;6.70;4.35;;;2.50;61.90;;;;;;5045290;28;20041;-82
2022/03/13 07:08:07;;;;;;;8.27;4.70;;;2.70;61.90;;;;;;5045004;28;20036;-84
2022/03/13 07:10:33;;;;;;;7.30;4.22;;;2.80;61.70;;;;;;5044262;28;20025;-83
2022/03/13 07:12:59;;;;;;;8.32;4.70;;;2.80;61.50;;;;;;5046440;28;20048;-83
2022/03/13 07:15:27;;;;;;;9.45;5.38;;;2.90;61.30;;;;;;5052068;28;20108;-83
2022/03/13 07:17:54;;;;;;;9.73;5.63;;;2.90;61.00;;;;;;5054423;28;20021;-84
2022/03/13 07:20:20;;;;;;;15.65;6.50;;;2.90;61.00;;;;;;5054870;28;20022;-86
2022/03/13 07:22:46;;;;;;;12.57;6.25;;;3.00;60.90;;;;;;5044037;28;20060;-84
2022/03/13 07:25:14;;;;;;;14.07;7.22;;;3.10;60.80;;;;;;5041607;28;20029;-84
2022/03/13 07:27:40;;;;;;;10.30;5.90;;;3.20;60.70;;;;;;5045830;28;20029;-84
2022/03/13 07:30:08;;;;;;;10.30;6.07;;;3.30;60.50;;;;;;5027634;28;20179;-84
2022/03/13 07:32:35;;;;;;;10.77;5.72;;;3.30;60.40;;;;;;5026368;28;20065;-86
2022/03/13 07:35:01;;;;;;;14.80;6.32;;;3.50;60.20;;;;;;5040577;28;20037;-84
2022/03/13 07:37:27;;;;;;;9.48;5.93;;;3.60;59.90;;;;;;5058771;28;20014;-87
2022/03/13 07:39:53;;;;;;;11.45;6.13;;;3.70;59.50;;;;;;5033179;28;20029;-84
2022/03/13 07:42:19;;;;;;;11.18;5.97;;;3.80;59.20;;;;;;5044481;28;20041;-85
2022/03/13 07:44:44;;;;;;;8.82;5.88;;;4.00;59.00;;;;;;5044054;28;20148;-85
2022/03/13 07:47:11;;;;;;;10.05;6.07;;;4.10;58.60;;;;;;5040819;28;20029;-85
2022/03/13 07:49:36;;;;;;;10.13;6.57;;;4.30;58.90;;;;;;5039823;28;20029;-84
2022/03/13 07:52:03;;;;;;;14.40;6.40;;;4.40;57.80;;;;;;5038446;28;20068;-85
2022/03/13 07:54:28;;;;;;;11.00;6.35;;;4.50;57.80;;;;;;5039917;28;20124;-84
2022/03/13 07:56:54;;;;;;;13.73;6.80;;;4.60;57.40;;;;;;5040143;28;20446;-84
2022/03/13 07:59:20;;;;;;;9.80;5.65;;;4.80;57.20;;;;;;5040442;28;20022;-84
2022/03/13 08:01:47;;;;;;;9.55;5.63;;;5.00;56.90;;;;;;5040161;28;20100;-85
2022/03/13 08:04:14;;;;;;;13.32;5.90;;;5.20;56.30;;;;;;5022853;28;20108;-85
2022/03/13 08:06:40;;;;;;;9.75;6.30;;;5.40;55.80;;;;;;5025022;28;20060;-84
2022/03/13 08:09:07;;;;;;;10.02;6.55;;;5.60;55.50;;;;;;5041719;28;20133;-84
2022/03/13 08:11:38;;;;;;;12.77;7.53;;;5.80;55.10;;;;;;5022970;28;20036;-83
2022/03/13 08:14:05;;;;;;;13.75;7.28;;;5.90;54.40;;;;;;5024456;28;20017;-84
2022/03/13 08:16:31;;;;;;;11.65;7.45;;;6.10;54.00;;;;;;5023796;28;20025;-83
2022/03/13 08:18:56;;;;;;;12.75;7.45;;;6.40;53.60;;;;;;5041711;28;20025;-84
2022/03/13 08:21:22;;;;;;;11.20;6.90;;;6.70;53.20;;;;;;5041773;28;20018;-84
2022/03/13 08:23:50;;;;;;;13.23;7.68;;;7.00;52.70;;;;;;5043202;28;20080;-85
2022/03/13 08:26:22;;;;;;;16.02;8.32;;;7.10;52.00;;;;;;5040976;28;20036;-84
2022/03/13 08:28:48;;;;;;;12.93;7.73;;;7.10;51.60;;;;;;5051067;28;20026;-83
2022/03/13 08:31:13;;;;;;;12.25;6.90;;;7.30;51.90;;;;;;5046221;28;20041;-85
2022/03/13 08:33:42;;;;;;;13.63;7.90;;;7.60;51.50;;;;;;5026337;28;20029;-85
2022/03/13 08:36:07;;;;;;;13.00;7.72;;;7.90;50.70;;;;;;5040272;28;20040;-83
2022/03/13 08:38:33;;;;;;;11.38;6.93;;;8.20;50.10;;;;;;5041200;28;20092;-86
2022/03/13 08:40:59;;;;;;;14.35;8.35;;;8.40;49.50;;;;;;5046846;28;20430;-86
2022/03/13 08:43:25;;;;;;;12.85;8.75;;;8.40;49.20;;;;;;5037447;28;20044;-86
2022/03/13 08:45:50;;;;;;;13.57;8.27;;;8.50;48.90;;;;;;5020119;28;20022;-84
2022/03/13 08:48:16;;;;;;;13.20;7.78;;;8.60;49.10;;;;;;5019945;28;20052;-85
2022/03/13 08:50:42;;;;;;;13.65;8.10;;;8.80;48.70;;;;;;5020618;28;20029;-85
2022/03/13 08:53:08;;;;;;;13.48;8.32;;;8.90;47.90;;;;;;5038364;28;20459;-84
2022/03/13 08:55:34;;;;;;;16.27;8.02;;;9.00;47.80;;;;;;5023575;28;20113;-85
2022/03/13 08:57:59;;;;;;;14.80;9.20;;;9.00;47.60;;;;;;5039741;28;20026;-87
2022/03/13 09:00:26;;;;;;;13.73;9.05;;;9.10;47.30;;;;;;5037823;28;20026;-86
2022/03/13 09:02:53;;;;;;;12.52;8.18;;;9.20;47.40;;;;;;5038157;28;20033;-86
2022/03/13 09:05:20;;;;;;;12.07;7.82;;;9.50;47.30;;;;;;5035932;28;20029;-86
2022/03/13 09:07:46;;;;;;;12.43;7.97;;;9.60;46.50;;;;;;5038082;28;20073;-87
2022/03/13 09:10:12;;;;;;;14.20;8.63;;;9.90;46.30;;;;;;5037976;28;20427;-86
2022/03/13 09:12:38;;;;;;;14.50;8.60;;;9.90;45.70;;;;;;5039689;28;20143;-87
2022/03/13 09:15:05;;;;;;;13.10;8.23;;;10.00;45.60;;;;;;5046099;28;20032;-84
2022/03/13 09:17:32;;;;;;;15.60;9.20;;;10.30;45.60;;;;;;5052506;28;20025;-82
2022/03/13 09:19:58;;;;;;;18.02;10.13;;;10.60;44.60;;;;;;5042078;28;20021;-86
2022/03/13 09:22:30;;;;;;;13.88;8.60;;;10.80;44.30;;;;;;5039426;28;20021;-85
2022/03/13 09:24:57;;;;;;;14.23;9.50;;;11.00;43.90;;;;;;5053374;28;20049;-87
2022/03/13 09:27:27;;;;;;;13.27;7.43;;;11.30;44.00;;;;;;5048540;28;20419;-88
2022/03/13 09:29:54;;;;;;;11.98;7.60;;;11.50;43.50;;;;;;5043988;28;20010;-84
2022/03/13 09:32:22;;;;;;;11.90;8.25;;;11.80;43.20;;;;;;5050931;28;20124;-87
2022/03/13 09:34:48;;;;;;;14.68;9.10;;;11.90;42.60;;;;;;5040017;28;20020;-87
2022/03/13 09:37:14;;;;;;;16.10;9.27;;;11.90;42.10;;;;;;5020427;28;20052;-85
2022/03/13 09:39:40;;;;;;;15.13;8.05;;;11.80;41.70;;;;;;5034222;28;20056;-88
2022/03/13 09:42:06;;;;;;;15.27;9.10;;;11.80;41.90;;;;;;5029048;28;20037;-82
2022/03/13 09:44:32;;;;;;;12.52;8.38;;;12.00;41.50;;;;;;5033329;28;20033;-86
2022/03/13 09:47:00;;;;;;;15.18;10.25;;;12.20;41.50;;;;;;5018406;28;20033;-86
2022/03/13 09:49:27;;;;;;;11.88;7.80;;;12.30;40.20;;;;;;5021640;28;20026;-87
2022/03/13 09:51:54;;;;;;;12.00;7.45;;;12.50;40.50;;;;;;5022450;28;20032;-87
2022/03/13 09:54:20;;;;;;;16.08;9.30;;;12.90;40.40;;;;;;5020030;28;20105;-86
2022/03/13 09:56:45;;;;;;;14.48;8.93;;;13.10;39.40;;;;;;5019084;28;20048;-86
2022/03/13 09:59:14;;;;;;;14.75;9.98;;;13.40;39.10;;;;;;5018559;28;20028;-88
2022/03/13 10:01:40;;;;;;;13.25;8.85;;;13.70;38.60;;;;;;5014815;28;20134;-83
2022/03/13 10:04:06;;;;;;;12.63;8.85;;;13.60;38.10;;;;;;5035588;28;20015;-83
2022/03/13 10:06:33;;;;;;;13.38;9.13;;;13.30;38.60;;;;;;5024333;28;20030;-86
2022/03/13 10:09:19;;;;;;;13.82;8.63;;;13.20;38.70;;;;;;5035237;28;20029;-87
2022/03/13 10:11:51;;;;;;;12.27;8.60;;;13.10;38.90;;;;;;5022149;28;20029;-87
2022/03/13 10:14:16;;;;;;;13.13;8.32;;;13.10;38.80;;;;;;5040221;28;20052;-86
2022/03/13 10:16:42;;;;;;;12.00;7.68;;;13.10;38.60;;;;;;5037608;28;20026;-86
2022/03/13 10:19:15;;;;;;;15.68;9.55;;;13.50;38.80;;;;;;5038782;28;20029;-85
2022/03/13 10:22:08;;;;;;;12.95;8.52;;;13.60;38.00;;;;;;5039244;28;20045;-87
2022/03/13 10:24:40;;;;;;;;;;;13.50;38.00;;;;;;5022061;28;20018;-88
2022/03/13 10:27:10;;;;;;;13.27;8.97;;;13.40;37.80;;;;;;5053777;28;19911;-87
2022/03/13 10:29:36;;;;;;;13.23;8.48;;;13.50;38.20;;;;;;5053555;28;20272;-83
2022/03/13 10:32:03;;;;;;;11.25;8.20;;;13.50;38.10;;;;;;5054837;28;20048;-82
2022/03/13 10:34:29;;;;;;;16.50;10.43;;;13.60;38.30;;;;;;5037993;28;20036;-82
2022/03/13 10:36:55;;;;;;;12.15;8.68;;;13.70;37.60;;;;;;5055571;28;20005;-84
2022/03/13 10:39:21;;;;;;;12.05;8.45;;;13.60;37.60;;;;;;5058165;28;20040;-82
2022/03/13 10:41:56;;;;;;;14.90;9.63;;;13.80;37.80;;;;;;5059204;28;20024;-81
2022/03/13 10:44:22;;;;;;;15.25;9.23;;;13.80;37.10;;;;;;5045565;28;20033;-87
2022/03/13 10:46:58;;;;;;;11.93;8.70;;;13.60;37.40;;;;;;5044822;28;20030;-87
2022/03/13 10:49:45;;;;;;;13.40;9.25;;;13.70;37.80;;;;;;5041779;28;20106;-87
2022/03/13 10:52:30;;;;;;;14.05;10.52;;;13.90;37.50;;;;;;5042264;28;20052;-87
2022/03/13 10:55:17;;;;;;;14.73;10.00;;;14.00;36.60;;;;;;5058843;28;20028;-82
2022/03/13 10:57:52;;;;;;;18.23;9.73;;;13.90;36.90;;;;;;5050237;28;20076;-85
2022/03/13 11:00:18;;;;;;;17.73;10.15;;;13.80;37.30;;;;;;5043808;28;20498;-88
2022/03/13 11:02:44;;;;;;;15.93;9.77;;;13.80;37.20;;;;;;5041282;28;20033;-86
2022/03/13 11:05:10;;;;;;;14.73;9.95;;;13.90;37.10;;;;;;5022542;28;20518;-86
2022/03/13 11:07:36;;;;;;;15.95;11.00;;;13.80;37.20;;;;;;5031279;28;20022;-86
2022/03/13 11:10:03;;;;;;;13.10;9.25;;;13.80;37.20;;;;;;5028010;28;20109;-86
2022/03/13 11:12:28;;;;;;;15.48;9.07;;;13.80;37.40;;;;;;5019140;28;20093;-87
2022/03/13 11:15:00;;;;;;;21.55;10.25;;;14.00;37.50;;;;;;5019870;28;20022;-86
2022/03/13 11:17:30;;;;;;;14.75;9.35;;;14.30;36.50;;;;;;5027777;28;20029;-87
2022/03/13 11:19:58;;;;;;;16.10;9.93;;;14.50;36.50;;;;;;5032834;28;20026;-86
2022/03/13 11:22:25;;;;;;;15.35;9.77;;;14.70;36.30;;;;;;5012097;28;20028;-87
2022/03/13 11:24:55;;;;;;;15.52;10.73;;;14.70;36.30;;;;;;5008440;28;20080;-85
2022/03/13 11:27:24;;;;;;;13.93;9.30;;;14.80;36.00;;;;;;5026783;28;20022;-87
2022/03/13 11:29:53;;;;;;;14.88;9.45;;;14.50;36.10;;;;;;5024321;28;20451;-86
2022/03/13 11:32:32;;;;;;;12.52;8.52;;;14.50;36.60;;;;;;5024067;28;20057;-87
2022/03/13 11:35:18;;;;;;;11.52;8.52;;;14.60;36.50;;;;;;5023893;28;20032;-87
2022/03/13 11:37:50;;;;;;;14.88;10.35;;;14.70;36.50;;;;;;5035010;28;20029;-86
2022/03/13 11:40:18;;;;;;;13.75;9.73;;;14.70;36.00;;;;;;5019084;28;20026;-84
2022/03/13 11:42:47;;;;;;;15.57;10.43;;;14.70;35.70;;;;;;5008738;28;20029;-87
2022/03/13 11:45:33;;;;;;;13.55;9.55;;;14.70;36.00;;;;;;5007828;28;20042;-87
2022/03/13 11:48:05;;;;;;;13.80;9.18;;;14.50;35.80;;;;;;5035278;28;20089;-82
2022/03/13 11:50:55;;;;;;;12.43;8.77;;;14.40;36.30;;;;;;5012965;28;20026;-87
2022/03/13 11:53:32;;;;;;;13.35;9.07;;;14.50;36.40;;;;;;4997873;28;20499;-86
2022/03/13 11:56:02;;;;;;;15.07;9.30;;;14.50;35.90;;;;;;5024232;28;20061;-86
2022/03/13 11:58:49;;;;;;;12.13;8.48;;;14.40;36.40;;;;;;5007175;28;20116;-87
2022/03/13 12:01:34;;;;;;;13.43;8.85;;;14.60;36.30;;;;;;5024145;28;20090;-86
2022/03/13 12:04:07;;;;;;;13.73;9.50;;;14.70;35.90;;;;;;5025254;28;20018;-87
2022/03/13 12:06:41;;;;;;;15.43;9.00;;;14.60;35.60;;;;;;5006316;28;20026;-87
2022/03/13 12:09:09;;;;;;;14.18;8.77;;;14.50;36.30;;;;;;5038653;28;20040;-85
2022/03/13 12:11:37;;;;;;;12.85;8.60;;;14.50;36.80;;;;;;5021532;28;20026;-86
2022/03/13 12:14:07;;;;;;;13.25;8.88;;;14.70;36.90;;;;;;5007380;28;20024;-87
2022/03/13 12:16:34;;;;;;;14.02;9.43;;;14.70;36.60;;;;;;5006189;28;20054;-85
2022/03/13 12:18:59;;;;;;;11.98;8.60;;;14.70;37.00;;;;;;5023003;28;20038;-86
2022/03/13 12:21:25;;;;;;;13.57;9.45;;;14.80;37.70;;;;;;5019421;28;20025;-87
2022/03/13 12:23:52;;;;;;;13.82;9.35;;;14.90;37.00;;;;;;5018873;28;20022;-85
2022/03/13 12:26:38;;;;;;;12.88;8.88;;;15.00;36.60;;;;;;5024350;28;20061;-85
2022/03/13 12:29:28;;;;;;;12.40;7.95;;;15.00;36.50;;;;;;5002150;28;20084;-86
2022/03/13 12:31:54;;;;;;;11.63;7.70;;;15.00;36.80;;;;;;5002253;28;20073;-86
2022/03/13 12:34:28;;;;;;;12.77;9.13;;;15.00;36.80;;;;;;5021411;28;20482;-86
2022/03/13 12:37:02;;;;;;;14.15;10.05;;;15.20;36.30;;;;;;5026480;28;20060;-87
2022/03/13 12:39:29;;;;;;;16.58;9.50;;;15.10;36.10;;;;;;5031864;28;20026;-88
2022/03/13 12:41:57;;;;;;;13.25;8.38;;;15.00;35.70;;;;;;5026486;28;20029;-86
2022/03/13 12:44:23;;;;;;;15.25;9.32;;;15.00;36.40;;;;;;5051411;28;20033;-87
2022/03/13 12:46:51;;;;;;;12.18;8.52;;;15.30;36.20;;;;;;5042426;28;20017;-85
2022/03/13 12:49:25;;;;;;;15.70;9.35;;;15.50;35.50;;;;;;5054451;28;20005;-82
2022/03/13 12:51:51;;;;;;;16.60;10.00;;;15.40;35.20;;;;;;5030711;28;20443;-85
2022/03/13 12:54:29;;;;;;;11.95;8.38;;;15.60;34.60;;;;;;5041051;28;20021;-85